Time;durP1;ratioP1;P1;durP2;ratioP2;P2;SDS_P1;SDS_P2;PMS_P1;PMS_P2;Temp;Humidity;BMP_temperature;BMP_pressure;BME280_temperature;BME280_humidity;BME280_pressure;Samples;Min_cycle;Max_cycle;Signal;HPM_P1;HPM_P2
2023/12/04 00:01:34;;;;;;;24.70;14.70;;;;;;;0.36;92.73;101198.72;5056622;28;20195;-66
2023/12/04 00:04:01;;;;;;;26.70;14.83;;;;;;;0.37;92.57;101196.97;5056594;28;20269;-66
2023/12/04 00:06:28;;;;;;;31.90;14.87;;;;;;;0.34;92.59;101191.84;5057108;28;20266;-66
2023/12/04 00:08:56;;;;;;;24.20;13.83;;;;;;;0.33;92.38;101183.13;5056426;28;20203;-66
2023/12/04 00:11:22;;;;;;;23.17;13.80;;;;;;;0.33;92.79;101179.63;5056527;28;20192;-66
2023/12/04 00:13:49;;;;;;;20.23;13.40;;;;;;;0.35;92.34;101180.38;5056415;28;20183;-66
2023/12/04 00:16:15;;;;;;;25.50;13.20;;;;;;;0.33;92.19;101174.38;5056369;28;20225;-66
2023/12/04 00:18:42;;;;;;;22.60;14.00;;;;;;;0.32;92.41;101177.91;5056084;28;20215;-66
2023/12/04 00:21:09;;;;;;;25.37;15.67;;;;;;;0.34;91.73;101174.28;5056293;28;20252;-66
2023/12/04 00:23:35;;;;;;;21.13;13.80;;;;;;;0.31;92.10;101177.06;5056530;28;20187;-66
2023/12/04 00:26:02;;;;;;;19.27;14.10;;;;;;;0.33;92.04;101172.59;5056562;28;20248;-66
2023/12/04 00:28:29;;;;;;;24.10;14.70;;;;;;;0.28;91.69;101169.34;5056524;28;20209;-66
2023/12/04 00:30:55;;;;;;;25.83;14.93;;;;;;;0.28;91.72;101165.84;5056182;28;20550;-66
2023/12/04 00:33:22;;;;;;;24.87;15.63;;;;;;;0.30;91.82;101158.72;5056083;28;20270;-66
2023/12/04 00:35:48;;;;;;;27.73;15.43;;;;;;;0.29;91.82;101159.66;5056258;28;20237;-66
2023/12/04 00:38:15;;;;;;;25.43;14.97;;;;;;;0.32;91.55;101159.50;5056172;28;20214;-66
2023/12/04 00:40:41;;;;;;;27.13;15.13;;;;;;;0.37;91.22;101152.25;5055328;28;20670;-66
2023/12/04 00:43:08;;;;;;;25.33;15.13;;;;;;;0.34;90.75;101149.78;5056347;28;20187;-66
2023/12/04 00:45:35;;;;;;;28.43;15.97;;;;;;;0.32;90.67;101149.84;5056097;28;20230;-66
2023/12/04 00:48:02;;;;;;;31.97;15.60;;;;;;;0.31;90.75;101142.03;5055977;28;20770;-67
2023/12/04 00:50:29;;;;;;;25.70;14.53;;;;;;;0.34;90.53;101141.91;5055716;28;20190;-67
2023/12/04 00:52:56;;;;;;;28.33;15.33;;;;;;;0.33;90.46;101138.41;5055978;28;20191;-66
2023/12/04 00:55:22;;;;;;;29.37;15.83;;;;;;;0.29;90.34;101134.22;5055638;28;20254;-66
2023/12/04 00:57:49;;;;;;;24.70;15.57;;;;;;;0.26;90.33;101133.50;5055416;28;20207;-67
2023/12/04 01:00:16;;;;;;;20.33;13.77;;;;;;;0.32;90.35;101131.44;5055517;28;20191;-67
2023/12/04 01:02:42;;;;;;;22.67;14.87;;;;;;;0.32;89.33;101123.56;5055492;28;20202;-67
2023/12/04 01:05:09;;;;;;;24.90;15.57;;;;;;;0.31;89.26;101118.34;5055435;28;20281;-67
2023/12/04 01:07:35;;;;;;;22.83;14.40;;;;;;;0.27;89.49;101119.44;5055348;28;20214;-67
2023/12/04 01:10:03;;;;;;;28.63;15.27;;;;;;;0.29;89.28;101118.47;5055369;28;20187;-67
2023/12/04 01:12:30;;;;;;;21.60;13.13;;;;;;;0.31;89.41;101113.97;5055566;28;20195;-66
2023/12/04 01:14:56;;;;;;;28.97;15.80;;;;;;;0.34;89.64;101110.34;5055565;28;20206;-66
2023/12/04 01:17:23;;;;;;;21.90;14.83;;;;;;;0.38;88.94;101117.16;5054973;28;20207;-66
2023/12/04 01:19:49;;;;;;;19.90;14.77;;;;;;;0.34;88.69;101110.34;5055120;28;20207;-66
2023/12/04 01:22:16;;;;;;;18.13;14.03;;;;;;;0.36;88.72;101105.84;5055415;28;20558;-66
2023/12/04 01:24:42;;;;;;;23.07;15.43;;;;;;;0.37;88.80;101107.53;5055121;28;20226;-66
2023/12/04 01:27:09;;;;;;;22.07;14.47;;;;;;;0.39;88.65;101098.63;5055041;28;20183;-66
2023/12/04 01:29:35;;;;;;;26.07;15.07;;;;;;;0.41;88.55;101098.56;5054965;28;20211;-67
2023/12/04 01:32:02;;;;;;;21.47;14.20;;;;;;;0.44;88.33;101098.41;5055263;28;20195;-66
2023/12/04 01:34:28;;;;;;;25.90;15.87;;;;;;;0.40;88.45;101095.09;5054916;28;20176;-66
2023/12/04 01:36:55;;;;;;;17.43;14.20;;;;;;;0.47;88.27;101092.16;5054832;28;20663;-66
2023/12/04 01:39:21;;;;;;;21.63;14.20;;;;;;;0.37;87.93;101092.63;5054823;28;20209;-66
2023/12/04 01:41:48;;;;;;;21.67;13.57;;;;;;;0.36;88.09;101090.06;5054801;28;20241;-66
2023/12/04 01:44:14;;;;;;;22.30;12.90;;;;;;;0.33;87.78;101093.72;5054719;28;20250;-67
2023/12/04 01:46:42;;;;;;;19.60;13.97;;;;;;;0.29;87.91;101083.41;5055020;28;20669;-66
2023/12/04 01:49:08;;;;;;;19.67;13.57;;;;;;;0.23;88.09;101081.94;5054641;28;20206;-66
2023/12/04 01:51:35;;;;;;;19.27;13.23;;;;;;;0.25;88.09;101084.50;5054649;28;20180;-66
2023/12/04 01:54:04;;;;;;;22.90;15.00;;;;;;;0.21;88.27;101072.44;5054581;28;20262;-66
2023/12/04 01:56:32;;;;;;;25.20;13.63;;;;;;;0.26;88.54;101073.88;5054542;28;20685;-66
2023/12/04 01:58:58;;;;;;;19.87;14.00;;;;;;;0.28;87.86;101066.78;5054511;28;20215;-66
2023/12/04 02:01:27;;;;;;;20.23;13.43;;;;;;;0.27;87.79;101066.84;5054491;28;20233;-66
2023/12/04 02:03:54;;;;;;;24.03;13.93;;;;;;;0.21;88.00;101062.75;5054746;28;20197;-66
2023/12/04 02:06:21;;;;;;;17.77;12.80;;;;;;;0.22;87.64;101071.50;5055433;28;20195;-66
2023/12/04 02:08:48;;;;;;;16.80;12.43;;;;;;;0.17;88.21;101060.38;5054798;28;20203;-66
2023/12/04 02:11:14;;;;;;;19.17;14.27;;;;;;;0.15;88.42;101067.47;5054522;28;20561;-66
2023/12/04 02:13:41;;;;;;;24.77;13.30;;;;;;;0.17;87.82;101068.28;5054186;28;20187;-66
2023/12/04 02:16:10;;;;;;;20.07;14.10;;;;;;;0.22;87.44;101068.88;5053175;28;20198;-66
2023/12/04 02:18:37;;;;;;;22.00;13.60;;;;;;;0.24;87.52;101065.25;5053949;28;20218;-67
2023/12/04 02:21:04;;;;;;;18.90;13.27;;;;;;;0.26;87.87;101068.63;5054381;28;20202;-66
2023/12/04 02:23:31;;;;;;;22.93;14.03;;;;;;;0.27;87.61;101064.22;5054218;28;20198;-66
2023/12/04 02:26:18;;;;;;;20.47;12.77;;;;;;;0.23;87.31;101071.44;5054004;28;20205;-66
2023/12/04 02:28:53;;;;;;;21.47;13.70;;;;;;;0.18;87.53;101065.53;5054394;28;20705;-67
2023/12/04 02:31:23;;;;;;;15.87;13.60;;;;;;;0.13;87.33;101064.91;5054442;28;20229;-67
2023/12/04 02:33:52;;;;;;;13.53;12.23;;;;;;;0.12;87.24;101065.88;5053718;28;20187;-67
2023/12/04 02:36:20;;;;;;;24.33;13.23;;;;;;;0.10;87.65;101056.34;5054056;28;20679;-67
2023/12/04 02:38:52;;;;;;;23.77;12.40;;;;;;;0.15;86.97;101049.09;5054202;28;20679;-66
2023/12/04 02:41:19;;;;;;;20.70;14.20;;;;;;;0.04;87.53;101046.16;5054016;28;20202;-66
2023/12/04 02:43:45;;;;;;;18.43;14.23;;;;;;;0.05;87.58;101048.69;5053892;28;20185;-66
2023/12/04 02:46:12;;;;;;;19.93;13.30;;;;;;;0.09;87.64;101049.38;5054170;28;20175;-66
2023/12/04 02:48:38;;;;;;;20.93;13.23;;;;;;;0.08;87.64;101042.44;5053626;28;20261;-67
2023/12/04 02:51:05;;;;;;;17.87;12.27;;;;;;;0.04;87.30;101038.28;5053482;28;20191;-66
2023/12/04 02:53:32;;;;;;;17.53;12.03;;;;;;;-0.01;87.80;101034.09;5053509;28;20187;-66
2023/12/04 02:55:58;;;;;;;21.27;14.03;;;;;;;0.10;87.19;101030.91;5054002;28;20206;-66
2023/12/04 02:58:24;;;;;;;25.53;13.23;;;;;;;0.06;87.13;101028.50;5053385;28;20717;-67
2023/12/04 03:00:51;;;;;;;21.20;13.20;;;;;;;0.05;87.82;101029.44;5053446;28;20187;-67
2023/12/04 03:03:17;;;;;;;18.93;13.30;;;;;;;0.06;87.53;101020.63;5052920;28;20562;-67
2023/12/04 03:05:44;;;;;;;18.37;12.87;;;;;;;0.06;86.75;101024.13;5053265;28;20266;-67
2023/12/04 03:08:10;;;;;;;15.07;11.60;;;;;;;0.12;87.22;101025.59;5053435;28;20207;-67
2023/12/04 03:10:37;;;;;;;15.27;12.17;;;;;;;0.15;86.77;101020.16;5053197;28;20237;-67
2023/12/04 03:13:03;;;;;;;17.03;12.27;;;;;;;0.23;86.25;101010.97;5053228;28;20187;-67
2023/12/04 03:15:30;;;;;;;16.70;13.03;;;;;;;0.23;85.70;101008.34;5053126;28;20201;-67
2023/12/04 03:18:00;;;;;;;22.20;13.20;;;;;;;0.21;85.39;101002.28;5052991;28;20214;-67
2023/12/04 03:20:28;;;;;;;13.60;12.17;;;;;;;0.21;85.28;100998.84;5053375;28;20187;-67
2023/12/04 03:22:55;;;;;;;17.87;11.90;;;;;;;0.27;84.92;101001.13;5053597;28;20647;-67
2023/12/04 03:25:22;;;;;;;13.60;10.70;;;;;;;0.27;84.74;100998.50;5053075;28;20183;-67
2023/12/04 03:27:48;;;;;;;13.07;11.30;;;;;;;0.27;84.55;100990.63;5053593;28;20655;-66
2023/12/04 03:30:16;;;;;;;14.90;11.23;;;;;;;0.36;83.90;100975.22;5053264;28;20262;-67
2023/12/04 03:32:42;;;;;;;12.20;10.53;;;;;;;0.33;82.89;100972.75;5053016;28;20678;-66
2023/12/04 03:35:09;;;;;;;16.13;11.37;;;;;;;0.30;82.26;100972.03;5052969;28;20197;-66
2023/12/04 03:37:36;;;;;;;12.63;11.33;;;;;;;0.28;82.86;100971.28;5053046;28;20195;-67
2023/12/04 03:40:03;;;;;;;11.97;10.37;;;;;;;0.33;81.93;100964.00;5052930;28;20195;-67
2023/12/04 03:42:29;;;;;;;12.63;11.33;;;;;;;0.32;82.21;100952.63;5052931;28;20261;-67
2023/12/04 03:44:56;;;;;;;12.53;10.83;;;;;;;0.33;81.50;100950.88;5052995;28;20186;-66
2023/12/04 03:47:23;;;;;;;14.37;10.93;;;;;;;0.32;81.58;100952.63;5053228;28;20189;-66
2023/12/04 03:49:50;;;;;;;13.57;10.70;;;;;;;0.34;81.37;100947.31;5052890;28;20213;-66
2023/12/04 03:52:16;;;;;;;39.97;18.67;;;;;;;0.38;81.29;100951.47;5052860;28;20187;-66
2023/12/04 03:54:43;;;;;;;14.93;11.23;;;;;;;0.40;81.22;100945.19;5052778;28;20278;-66
2023/12/04 03:57:11;;;;;;;11.13;10.03;;;;;;;0.42;81.27;100945.13;5052744;28;20186;-66
2023/12/04 03:59:37;;;;;;;10.53;9.73;;;;;;;0.45;80.87;100948.44;5052827;28;20590;-67
2023/12/04 04:02:04;;;;;;;11.47;10.23;;;;;;;0.44;80.61;100956.38;5053279;28;20179;-67
2023/12/04 04:04:30;;;;;;;10.60;9.50;;;;;;;0.46;80.82;100938.75;5052682;28;20192;-67
2023/12/04 04:06:57;;;;;;;10.27;9.50;;;;;;;0.46;80.73;100944.03;5052668;28;20194;-67
2023/12/04 04:09:23;;;;;;;15.27;10.47;;;;;;;0.44;79.36;100938.84;5053123;28;20210;-66
2023/12/04 04:11:50;;;;;;;12.27;10.90;;;;;;;0.48;79.01;100936.88;5052637;28;20183;-66
2023/12/04 04:14:17;;;;;;;15.40;11.27;;;;;;;0.57;78.70;100927.66;5053520;28;20650;-66
2023/12/04 04:16:43;;;;;;;12.87;10.10;;;;;;;0.56;78.81;100925.94;5056260;28;20199;-66
2023/12/04 04:19:10;;;;;;;12.03;9.93;;;;;;;0.58;78.60;100919.69;5056235;28;20280;-67
2023/12/04 04:21:40;;;;;;;11.93;10.73;;;;;;;0.60;78.67;100916.94;5056582;28;20195;-66
2023/12/04 04:24:07;;;;;;;18.97;13.23;;;;;;;0.55;78.54;100913.75;5056287;28;20651;-66
2023/12/04 04:26:33;;;;;;;19.63;13.83;;;;;;;0.59;78.16;100913.50;5056491;28;20665;-66
2023/12/04 04:28:59;;;;;;;13.03;11.37;;;;;;;0.64;77.79;100907.94;5056136;28;20214;-66
2023/12/04 04:31:26;;;;;;;14.97;10.03;;;;;;;0.65;77.10;100907.88;5056909;28;20195;-66
2023/12/04 04:33:53;;;;;;;11.77;10.27;;;;;;;0.67;77.00;100916.56;5056052;28;20697;-66
2023/12/04 04:36:19;;;;;;;12.67;10.53;;;;;;;0.68;76.43;100909.50;5056289;28;20195;-66
2023/12/04 04:38:46;;;;;;;13.97;11.20;;;;;;;0.68;76.38;100907.69;5055813;28;20203;-66
2023/12/04 04:41:15;;;;;;;13.17;10.77;;;;;;;0.70;76.22;100905.00;5055891;28;20187;-66
2023/12/04 04:43:42;;;;;;;15.63;12.43;;;;;;;0.70;75.79;100908.47;5055835;28;20188;-66
2023/12/04 04:46:09;;;;;;;22.20;13.43;;;;;;;0.69;75.45;100901.50;5056138;28;20183;-66
2023/12/04 04:48:35;;;;;;;11.50;10.27;;;;;;;0.65;75.77;100897.34;5055699;28;20217;-66
2023/12/04 04:51:02;;;;;;;11.17;10.10;;;;;;;0.63;76.25;100893.13;5055720;28;20220;-66
2023/12/04 04:53:29;;;;;;;10.87;9.70;;;;;;;0.72;75.73;100901.34;5055992;28;20179;-66
2023/12/04 04:55:55;;;;;;;10.53;9.53;;;;;;;0.62;75.48;100887.00;5055652;28;20202;-66
2023/12/04 04:58:22;;;;;;;10.13;9.33;;;;;;;0.63;75.83;100890.50;5055788;28;20219;-67
2023/12/04 05:00:48;;;;;;;16.50;14.57;;;;;;;0.63;75.37;100891.34;5055861;28;20187;-67
2023/12/04 05:03:15;;;;;;;12.80;10.40;;;;;;;0.71;73.55;100890.91;5055815;28;20180;-66
2023/12/04 05:05:41;;;;;;;19.17;9.97;;;;;;;0.70;73.88;100889.22;5055450;28;20203;-66
2023/12/04 05:08:08;;;;;;;9.90;9.00;;;;;;;0.69;73.75;100887.50;5055377;28;20625;-66
2023/12/04 05:10:34;;;;;;;9.70;8.80;;;;;;;0.73;73.07;100889.03;5055421;28;20190;-66
2023/12/04 05:13:01;;;;;;;10.87;10.00;;;;;;;0.71;72.92;100880.41;5055909;28;20172;-66
2023/12/04 05:15:27;;;;;;;13.07;10.30;;;;;;;0.73;72.72;100878.50;5055561;28;20171;-66
2023/12/04 05:17:54;;;;;;;10.40;9.50;;;;;;;0.74;72.87;100873.19;5054950;28;20226;-66
2023/12/04 05:20:20;;;;;;;12.57;10.37;;;;;;;0.75;72.70;100879.28;5055295;28;20183;-66
2023/12/04 05:22:48;;;;;;;9.77;8.47;;;;;;;0.83;71.11;100877.94;5055561;28;20190;-66
2023/12/04 05:25:15;;;;;;;10.23;9.20;;;;;;;0.81;71.21;100871.88;5054909;28;20238;-66
2023/12/04 05:27:41;;;;;;;10.30;8.93;;;;;;;0.88;70.96;100870.63;5055315;28;20264;-66
2023/12/04 05:30:08;;;;;;;24.67;9.60;;;;;;;0.83;71.52;100872.66;5054152;28;20678;-66
2023/12/04 05:32:34;;;;;;;14.47;9.77;;;;;;;0.84;71.77;100881.41;5055479;28;20634;-66
2023/12/04 05:35:01;;;;;;;15.60;11.67;;;;;;;0.80;71.71;100867.59;5055170;28;20243;-66
2023/12/04 05:37:28;;;;;;;21.93;13.53;;;;;;;0.77;71.93;100869.50;5055203;28;20188;-66
2023/12/04 05:39:54;;;;;;;22.13;12.00;;;;;;;0.76;71.82;100859.94;5054735;28;20286;-66
2023/12/04 05:42:20;;;;;;;14.07;9.00;;;;;;;0.81;71.74;100850.84;5054777;28;20197;-66
2023/12/04 05:44:47;;;;;;;19.87;13.17;;;;;;;0.78;72.14;100853.66;5054744;28;20188;-66
2023/12/04 05:47:14;;;;;;;10.73;9.57;;;;;;;0.81;71.07;100853.47;5054664;28;20198;-66
2023/12/04 05:49:41;;;;;;;9.47;8.63;;;;;;;0.83;71.00;100848.97;5054945;28;20222;-66
2023/12/04 05:52:07;;;;;;;12.23;9.67;;;;;;;0.81;71.65;100852.63;5054911;28;20538;-66
2023/12/04 05:54:34;;;;;;;9.63;8.73;;;;;;;0.75;71.52;100853.81;5054600;28;20205;-66
2023/12/04 05:57:00;;;;;;;10.37;9.20;;;;;;;0.76;71.81;100858.16;5055597;28;20677;-66
2023/12/04 05:59:27;;;;;;;10.60;9.60;;;;;;;0.79;71.53;100867.66;5054416;28;20218;-66
2023/12/04 06:01:53;;;;;;;10.73;9.67;;;;;;;0.89;70.64;100863.59;5054917;28;20244;-69
2023/12/04 06:04:20;;;;;;;9.27;8.47;;;;;;;0.86;70.60;100859.31;5054993;28;20253;-71
2023/12/04 06:06:46;;;;;;;11.17;9.80;;;;;;;0.87;70.49;100860.16;5054294;28;20194;-70
2023/12/04 06:09:15;;;;;;;10.60;8.73;;;;;;;0.88;70.75;100862.72;5054169;28;20241;-70
2023/12/04 06:11:41;;;;;;;10.93;9.97;;;;;;;0.85;70.95;100856.75;5054517;28;20179;-69
2023/12/04 06:14:11;;;;;;;10.03;9.00;;;;;;;0.85;71.23;100860.25;5054414;28;20524;-69
2023/12/04 06:16:38;;;;;;;9.80;8.87;;;;;;;0.80;71.71;100869.34;5053998;28;20210;-66
2023/12/04 06:19:04;;;;;;;10.37;9.37;;;;;;;0.75;71.97;100866.13;5054226;28;20229;-66
2023/12/04 06:21:31;;;;;;;10.60;9.50;;;;;;;0.72;72.77;100861.06;5054603;28;20199;-66
2023/12/04 06:23:58;;;;;;;11.17;9.93;;;;;;;0.73;73.00;100858.31;5054551;28;20179;-66
2023/12/04 06:26:24;;;;;;;12.07;10.03;;;;;;;0.69;73.07;100848.91;5054261;28;20265;-66
2023/12/04 06:28:51;;;;;;;10.97;10.03;;;;;;;0.67;73.37;100836.78;5054535;28;20207;-66
2023/12/04 06:31:18;;;;;;;10.73;9.63;;;;;;;0.74;73.60;100835.50;5054081;28;20581;-66
2023/12/04 06:33:45;;;;;;;9.93;9.33;;;;;;;0.70;73.69;100826.06;5053789;28;20233;-66
2023/12/04 06:36:12;;;;;;;16.10;10.23;;;;;;;0.64;74.16;100824.63;5054000;28;20198;-66
2023/12/04 06:38:40;;;;;;;10.93;9.83;;;;;;;0.59;73.91;100818.81;5052841;28;20674;-66
2023/12/04 06:41:08;;;;;;;14.70;9.90;;;;;;;0.59;72.79;100817.94;5053701;28;20194;-66
2023/12/04 06:43:34;;;;;;;13.30;10.57;;;;;;;0.67;72.85;100811.31;5053532;28;20198;-66
2023/12/04 06:46:01;;;;;;;10.37;9.33;;;;;;;0.74;71.99;100807.41;5054082;28;20210;-66
2023/12/04 06:48:28;;;;;;;11.47;10.33;;;;;;;0.72;72.57;100804.00;5053805;28;20305;-66
2023/12/04 06:50:55;;;;;;;10.67;9.50;;;;;;;0.75;72.27;100803.84;5053584;28;20214;-66
2023/12/04 06:53:22;;;;;;;14.80;10.07;;;;;;;0.73;71.91;100799.56;5053957;28;20651;-66
2023/12/04 06:55:48;;;;;;;11.40;10.17;;;;;;;0.76;71.75;100797.66;5053378;28;20195;-66
2023/12/04 06:58:15;;;;;;;13.13;10.83;;;;;;;0.75;71.96;100793.31;5053400;28;20208;-66
2023/12/04 07:00:41;;;;;;;11.73;9.43;;;;;;;0.76;70.76;100787.13;5053360;28;20215;-66
2023/12/04 07:03:08;;;;;;;9.90;8.77;;;;;;;0.77;70.49;100785.31;5053223;28;20179;-66
2023/12/04 07:05:34;;;;;;;15.40;11.00;;;;;;;0.80;71.09;100786.00;5053367;28;20179;-69
2023/12/04 07:08:01;;;;;;;14.10;10.37;;;;;;;0.91;68.39;100778.31;5053387;28;20207;-69
2023/12/04 07:10:27;;;;;;;15.87;10.93;;;;;;;0.86;69.43;100779.53;5053729;28;20194;-69
2023/12/04 07:12:54;;;;;;;11.23;10.23;;;;;;;0.99;68.78;100774.38;5053936;28;20199;-69
2023/12/04 07:15:20;;;;;;;17.50;12.00;;;;;;;0.96;69.04;100777.22;5053306;28;20536;-69
2023/12/04 07:17:47;;;;;;;12.03;10.43;;;;;;;0.91;69.27;100777.47;5052866;28;20203;-69
2023/12/04 07:20:14;;;;;;;15.50;10.77;;;;;;;0.97;69.48;100766.59;5053280;28;20580;-69
2023/12/04 07:22:40;;;;;;;10.40;9.37;;;;;;;0.91;69.97;100761.69;5053099;28;20195;-69
2023/12/04 07:25:07;;;;;;;11.60;10.20;;;;;;;0.91;70.21;100752.00;5053066;28;20194;-69
2023/12/04 07:27:34;;;;;;;11.03;10.00;;;;;;;0.85;70.23;100757.63;5052974;28;20553;-69
2023/12/04 07:30:02;;;;;;;20.37;10.30;;;;;;;0.86;70.50;100758.47;5053032;28;20182;-69
2023/12/04 07:32:29;;;;;;;10.30;9.33;;;;;;;0.88;70.11;100754.84;5053283;28;20553;-69
2023/12/04 07:34:56;;;;;;;10.37;9.30;;;;;;;0.83;70.51;100743.72;5053255;28;20183;-69
2023/12/04 07:37:22;;;;;;;11.43;10.27;;;;;;;0.87;70.73;100739.97;5052931;28;20249;-69
2023/12/04 07:39:49;;;;;;;11.23;10.03;;;;;;;0.93;69.72;100731.69;5052750;28;20741;-69
2023/12/04 07:42:15;;;;;;;14.33;10.07;;;;;;;1.09;70.35;100729.03;5053205;28;20199;-70
2023/12/04 07:44:42;;;;;;;11.30;10.23;;;;;;;0.99;69.52;100729.66;5053276;28;20187;-70
2023/12/04 07:47:08;;;;;;;11.00;9.90;;;;;;;0.96;69.13;100727.19;5052825;28;20663;-70
2023/12/04 07:49:35;;;;;;;10.43;9.43;;;;;;;1.00;69.32;100720.81;5055236;28;20214;-69
2023/12/04 07:52:01;;;;;;;12.23;10.93;;;;;;;1.02;68.39;100724.22;5057115;28;20168;-69
2023/12/04 07:54:29;;;;;;;10.50;9.60;;;;;;;1.05;68.00;100714.34;5056984;28;20190;-70
2023/12/04 07:56:55;;;;;;;12.17;9.03;;;;;;;1.10;67.79;100714.09;5056933;28;20198;-70
2023/12/04 07:59:22;;;;;;;12.97;9.67;;;;;;;1.07;68.68;100715.09;5056546;28;20257;-70
2023/12/04 08:01:48;;;;;;;13.70;8.50;;;;;;;1.14;68.17;100697.16;5057267;28;20195;-70
2023/12/04 08:04:15;;;;;;;9.50;8.40;;;;;;;1.12;68.06;100699.88;5057158;28;20191;-70
2023/12/04 08:06:41;;;;;;;9.83;8.97;;;;;;;1.13;67.22;100708.63;5056500;28;20195;-70
2023/12/04 08:09:10;;;;;;;10.40;9.40;;;;;;;1.16;67.25;100701.38;5056517;28;20207;-69
2023/12/04 08:11:37;;;;;;;10.60;9.67;;;;;;;1.13;68.22;100720.00;5056416;28;20621;-70
2023/12/04 08:14:04;;;;;;;10.73;9.60;;;;;;;1.15;68.29;100701.47;5056686;28;20693;-70
2023/12/04 08:16:30;;;;;;;10.77;9.70;;;;;;;1.19;67.70;100703.81;5056440;28;20187;-70
2023/12/04 08:18:57;;;;;;;9.87;8.93;;;;;;;1.19;67.66;100706.44;5056297;28;20710;-69
2023/12/04 08:21:23;;;;;;;9.87;9.00;;;;;;;1.20;68.24;100707.31;5056588;28;20203;-70
2023/12/04 08:23:51;;;;;;;9.00;8.20;;;;;;;1.22;68.46;100695.75;5056866;28;20245;-67
2023/12/04 08:26:24;;;;;;;12.30;9.27;;;;;;;1.23;68.22;100699.25;5056494;28;20187;-67
2023/12/04 08:28:52;;;;;;;9.93;9.07;;;;;;;1.24;67.25;100693.84;5055949;28;20241;-67
2023/12/04 08:31:19;;;;;;;10.00;9.13;;;;;;;1.21;68.38;100699.31;5056229;28;20183;-67
2023/12/04 08:33:45;;;;;;;9.13;8.33;;;;;;;1.25;68.58;100714.00;5056158;28;20187;-67
2023/12/04 08:36:12;;;;;;;12.00;8.17;;;;;;;1.26;68.74;100704.31;5056322;28;20183;-67
2023/12/04 08:38:38;;;;;;;10.30;9.30;;;;;;;1.26;68.86;100715.69;5055944;28;20218;-67
2023/12/04 08:41:06;;;;;;;11.30;9.03;;;;;;;1.27;69.19;100706.84;5055947;28;20269;-67
2023/12/04 08:43:32;;;;;;;10.27;9.37;;;;;;;1.34;69.20;100702.91;5055908;28;20199;-67
2023/12/04 08:46:00;;;;;;;9.77;8.97;;;;;;;1.37;68.63;100697.44;5056137;28;20551;-67
2023/12/04 08:48:27;;;;;;;9.70;8.80;;;;;;;1.40;68.74;100693.75;5055730;28;20383;-67
2023/12/04 08:50:54;;;;;;;10.30;8.93;;;;;;;1.42;68.54;100696.31;5056256;28;20236;-67
2023/12/04 08:53:20;;;;;;;10.53;8.63;;;;;;;1.46;67.89;100692.53;5054522;28;20191;-67
2023/12/04 08:55:47;;;;;;;9.97;9.10;;;;;;;1.53;67.89;100689.44;5055583;28;20189;-67
2023/12/04 08:58:14;;;;;;;8.80;8.00;;;;;;;1.51;67.86;100682.56;5055790;28;20213;-67
2023/12/04 09:00:42;;;;;;;9.43;8.63;;;;;;;1.55;67.75;100676.16;5055030;28;20195;-67
2023/12/04 09:03:12;;;;;;;8.97;8.17;;;;;;;1.56;68.03;100676.09;5055594;28;20175;-67
2023/12/04 09:05:51;;;;;;;10.53;9.50;;;;;;;1.55;68.06;100670.91;5056020;28;20171;-67
2023/12/04 09:08:18;;;;;;;10.33;8.83;;;;;;;1.53;68.91;100670.16;5055565;28;20217;-67
2023/12/04 09:11:03;;;;;;;9.10;8.07;;;;;;;1.56;68.91;100662.06;5055640;28;20179;-67
2023/12/04 09:13:47;;;;;;;9.37;8.47;;;;;;;1.60;68.82;100667.06;5055334;28;20706;-67
2023/12/04 09:16:14;;;;;;;10.30;8.27;;;;;;;1.62;67.38;100672.19;5055255;28;20194;-67
2023/12/04 09:18:40;;;;;;;11.33;9.27;;;;;;;1.66;67.27;100660.53;5055045;28;20222;-67
2023/12/04 09:21:08;;;;;;;11.20;9.20;;;;;;;1.70;66.14;100662.88;5055167;28;20577;-67
2023/12/04 09:23:35;;;;;;;8.87;8.10;;;;;;;1.78;65.53;100659.78;5055457;28;20190;-67
2023/12/04 09:26:02;;;;;;;9.27;8.07;;;;;;;1.86;65.02;100662.78;5055087;28;20195;-67
2023/12/04 09:28:28;;;;;;;8.80;8.13;;;;;;;1.86;65.02;100652.22;5055204;28;20199;-67
2023/12/04 09:30:55;;;;;;;9.07;8.27;;;;;;;1.86;65.41;100651.38;5055025;28;20191;-67
2023/12/04 09:33:21;;;;;;;10.13;9.10;;;;;;;1.90;65.35;100643.19;5055564;28;20187;-67
2023/12/04 09:35:48;;;;;;;8.23;7.70;;;;;;;1.89;64.88;100638.84;5055218;28;20660;-67
2023/12/04 09:38:14;;;;;;;12.10;7.83;;;;;;;1.91;65.44;100631.66;5054746;28;20207;-67
2023/12/04 09:40:41;;;;;;;7.70;7.23;;;;;;;1.95;64.15;100627.06;5054781;28;20245;-67
2023/12/04 09:43:08;;;;;;;7.90;7.40;;;;;;;1.95;64.70;100627.06;5054768;28;20194;-70
2023/12/04 09:45:35;;;;;;;8.30;7.80;;;;;;;1.96;64.65;100621.66;5055054;28;20168;-70
2023/12/04 09:48:02;;;;;;;7.77;7.07;;;;;;;1.94;64.25;100628.84;5054609;28;20627;-67
2023/12/04 09:50:28;;;;;;;7.10;6.70;;;;;;;1.96;64.79;100616.41;5054932;28;20177;-67
2023/12/04 09:52:59;;;;;;;8.33;7.73;;;;;;;1.98;65.18;100617.16;5054707;28;20237;-67
2023/12/04 09:55:26;;;;;;;7.27;6.67;;;;;;;2.07;64.03;100613.94;5054547;28;20189;-67
2023/12/04 09:57:53;;;;;;;7.53;6.87;;;;;;;2.09;64.30;100603.25;5054438;28;20207;-67
2023/12/04 10:00:21;;;;;;;7.13;6.40;;;;;;;2.14;63.70;100602.03;5054980;28;20196;-70
2023/12/04 10:02:48;;;;;;;7.10;6.70;;;;;;;2.17;62.32;100596.53;5054853;28;20699;-70
2023/12/04 10:05:15;;;;;;;7.40;6.83;;;;;;;2.22;63.44;100591.81;5054319;28;20705;-70
2023/12/04 10:07:41;;;;;;;7.47;6.97;;;;;;;2.26;63.80;100595.09;5054866;28;20196;-70
2023/12/04 10:10:08;;;;;;;6.73;6.40;;;;;;;2.31;63.49;100600.91;5054671;28;20183;-70
2023/12/04 10:12:35;;;;;;;6.90;6.47;;;;;;;2.33;63.94;100587.63;5053419;28;20199;-70
2023/12/04 10:15:04;;;;;;;7.43;6.93;;;;;;;2.36;63.96;100587.41;5054754;28;20233;-67
2023/12/04 10:17:43;;;;;;;17.43;7.43;;;;;;;2.42;64.47;100581.72;5054300;28;20285;-67
2023/12/04 10:20:12;;;;;;;16.67;8.57;;;;;;;2.51;63.80;100565.25;5054565;28;20197;-70
2023/12/04 10:22:51;;;;;;;8.40;7.77;;;;;;;2.52;64.02;100565.16;5054314;28;20197;-70
2023/12/04 10:25:20;;;;;;;12.10;6.70;;;;;;;2.53;64.03;100563.38;5054303;28;20181;-67
2023/12/04 10:27:47;;;;;;;7.07;6.37;;;;;;;2.55;64.51;100553.53;5053883;28;20209;-70
2023/12/04 10:30:29;;;;;;;6.83;6.53;;;;;;;2.62;63.87;100547.75;5053929;28;20284;-67
2023/12/04 10:33:04;;;;;;;6.53;5.90;;;;;;;2.62;63.69;100542.47;5054308;28;20186;-67
2023/12/04 10:35:36;;;;;;;7.30;6.80;;;;;;;2.67;62.07;100539.53;5054098;28;20207;-67
2023/12/04 10:38:06;;;;;;;7.37;6.97;;;;;;;2.66;61.19;100537.84;5054270;28;20209;-67
2023/12/04 10:40:35;;;;;;;6.87;6.53;;;;;;;2.71;61.47;100533.94;5053862;28;20697;-67
2023/12/04 10:43:11;;;;;;;10.27;7.70;;;;;;;2.70;61.73;100534.88;5053646;28;20209;-67
2023/12/04 10:45:39;;;;;;;8.77;7.97;;;;;;;2.71;62.34;100530.44;5054236;28;20623;-71
2023/12/04 10:48:06;;;;;;;12.13;7.80;;;;;;;2.69;62.50;100537.59;5053750;28;20206;-70
2023/12/04 10:50:35;;;;;;;7.50;6.57;;;;;;;2.73;62.61;100532.00;5053676;28;20629;-71
2023/12/04 10:53:04;;;;;;;7.93;7.47;;;;;;;2.77;62.00;100524.72;5053513;28;20182;-67
2023/12/04 10:55:31;;;;;;;7.83;7.27;;;;;;;2.76;62.41;100518.59;5053699;28;20190;-67
2023/12/04 10:58:05;;;;;;;9.67;7.57;;;;;;;2.74;62.13;100515.22;5053668;28;20235;-67
2023/12/04 11:00:45;;;;;;;11.87;7.73;;;;;;;2.73;62.36;100507.41;5053860;28;20673;-67
2023/12/04 11:03:28;;;;;;;15.13;7.47;;;;;;;2.67;63.64;100519.22;5053877;28;20675;-67
2023/12/04 11:06:00;;;;;;;9.23;8.60;;;;;;;2.72;62.24;100522.41;5053592;28;20512;-67
2023/12/04 11:08:35;;;;;;;17.57;9.20;;;;;;;2.75;62.49;100521.38;5053498;28;20229;-67
2023/12/04 11:11:04;;;;;;;9.70;8.83;;;;;;;2.85;62.73;100510.97;5053584;28;20183;-67
2023/12/04 11:13:32;;;;;;;9.57;8.67;;;;;;;2.76;62.23;100515.09;5053309;28;20186;-67
2023/12/04 11:16:27;;;;;;;14.60;10.67;;;;;;;2.75;62.74;100516.94;5053501;28;20172;-67
2023/12/04 11:19:06;;;;;;;10.37;9.43;;;;;;;2.74;63.33;100509.97;5053040;28;20208;-67
2023/12/04 11:21:34;;;;;;;9.27;8.37;;;;;;;2.74;63.29;100509.97;5053364;28;20196;-67
2023/12/04 11:24:02;;;;;;;16.10;9.13;;;;;;;2.77;63.47;100514.16;5052966;28;20217;-67